createdAt,value
2023-05-04T00:02:14.658Z,9.40
2023-05-04T00:04:43.438Z,9.40
2023-05-04T00:07:12.834Z,9.30
2023-05-04T00:09:40.788Z,9.30
2023-05-04T00:12:08.921Z,9.20
2023-05-04T00:14:37.005Z,9.20
2023-05-04T00:17:06.643Z,9.20
2023-05-04T00:19:35.192Z,9.10
2023-05-04T00:22:03.768Z,9.10
2023-05-04T00:24:33.082Z,9.10
2023-05-04T00:27:01.121Z,9.10
2023-05-04T00:29:29.448Z,9.10
2023-05-04T00:31:57.769Z,9.00
2023-05-04T00:34:25.990Z,9.00
2023-05-04T00:36:54.003Z,9.00
2023-05-04T00:39:21.998Z,8.90
2023-05-04T00:41:52.016Z,8.80
2023-05-04T00:44:23.391Z,8.90
2023-05-04T00:46:52.400Z,8.80
2023-05-04T00:49:21.424Z,8.90
2023-05-04T00:51:50.672Z,8.90
2023-05-04T00:54:18.900Z,8.80
2023-05-04T00:56:47.109Z,8.80
2023-05-04T00:59:16.441Z,8.80
2023-05-04T01:01:44.484Z,8.80
2023-05-04T01:04:12.961Z,8.80
2023-05-04T01:06:47.203Z,8.70
2023-05-04T01:09:24.614Z,8.70
2023-05-04T01:11:59.270Z,8.60
2023-05-04T01:14:31.146Z,8.60
2023-05-04T01:17:00.392Z,8.60
2023-05-04T01:19:29.301Z,8.60
2023-05-04T01:21:58.672Z,8.60
2023-05-04T01:24:27.879Z,8.60
2023-05-04T01:27:00.526Z,8.60
2023-05-04T01:29:35.625Z,8.50
2023-05-04T01:32:04.046Z,8.50
2023-05-04T01:34:32.289Z,8.50
2023-05-04T01:37:03.396Z,8.40
2023-05-04T01:39:31.350Z,8.50
2023-05-04T01:41:59.879Z,8.40
2023-05-04T01:44:27.873Z,8.50
2023-05-04T01:46:56.148Z,8.50
2023-05-04T01:49:24.143Z,8.50
2023-05-04T01:51:52.147Z,8.50
2023-05-04T01:54:21.502Z,8.40
2023-05-04T01:56:49.487Z,8.30
2023-05-04T01:59:17.502Z,8.20
2023-05-04T02:01:45.545Z,8.20
2023-05-04T02:04:13.645Z,8.10
2023-05-04T02:06:41.607Z,8.20
2023-05-04T02:09:09.637Z,8.10
2023-05-04T02:11:38.945Z,8.10
2023-05-04T02:14:06.963Z,8.10
2023-05-04T02:16:35.001Z,8.10
2023-05-04T02:19:03.099Z,8.10
2023-05-04T02:21:31.104Z,8.00
2023-05-04T02:23:59.231Z,8.00
2023-05-04T02:26:27.155Z,8.10
2023-05-04T02:28:56.532Z,8.10
2023-05-04T02:31:25.049Z,8.00
2023-05-04T02:33:54.099Z,7.90
2023-05-04T02:36:22.251Z,7.90
2023-05-04T02:38:50.750Z,7.90
2023-05-04T02:41:18.773Z,7.90
2023-05-04T02:43:46.710Z,7.80
2023-05-04T02:46:16.134Z,7.80
2023-05-04T02:48:44.186Z,7.80
2023-05-04T02:51:12.279Z,7.70
2023-05-04T02:53:40.286Z,7.70
2023-05-04T02:56:08.529Z,7.60
2023-05-04T02:58:36.713Z,7.60
2023-05-04T03:01:04.798Z,7.60
2023-05-04T03:03:36.516Z,7.60
2023-05-04T03:06:04.669Z,7.60
2023-05-04T03:08:32.615Z,7.60
2023-05-04T03:11:00.633Z,7.50
2023-05-04T03:13:28.598Z,7.50
2023-05-04T03:15:56.548Z,7.70
2023-05-04T03:18:24.554Z,7.70
2023-05-04T03:20:54.177Z,7.60
2023-05-04T03:23:23.366Z,7.40
2023-05-04T03:25:51.659Z,7.40
2023-05-04T03:28:19.969Z,7.30
2023-05-04T03:30:48.059Z,7.30
2023-05-04T03:33:16.129Z,7.40
2023-05-04T03:35:44.540Z,7.40
2023-05-04T03:38:14.204Z,7.40
2023-05-04T03:40:44.520Z,7.30
2023-05-04T03:43:13.833Z,7.30
2023-05-04T03:45:41.862Z,7.40
2023-05-04T03:48:09.896Z,7.30
2023-05-04T03:50:37.933Z,7.30
2023-05-04T03:53:07.355Z,7.30
2023-05-04T03:55:36.977Z,7.30
2023-05-04T03:58:06.573Z,7.40
2023-05-04T04:00:35.099Z,7.40
2023-05-04T04:03:11.212Z,7.40
2023-05-04T04:05:42.442Z,7.20
2023-05-04T04:08:10.567Z,7.20
2023-05-04T04:10:40.841Z,7.10
2023-05-04T04:13:08.910Z,7.20
2023-05-04T04:15:38.025Z,7.30
2023-05-04T04:18:06.050Z,7.30
2023-05-04T04:20:34.329Z,7.30
2023-05-04T04:23:02.304Z,7.20
2023-05-04T04:25:30.376Z,7.20
2023-05-04T04:27:59.727Z,7.30
2023-05-04T04:30:27.690Z,7.30
2023-05-04T04:32:57.176Z,7.20
2023-05-04T04:35:25.189Z,7.20
2023-05-04T04:37:53.153Z,7.30
2023-05-04T04:40:22.504Z,7.20
2023-05-04T04:42:50.523Z,7.40
2023-05-04T04:45:20.447Z,7.40
2023-05-04T04:47:48.461Z,7.70
2023-05-04T04:50:16.588Z,7.80
2023-05-04T04:52:44.549Z,8.00
2023-05-04T04:55:13.169Z,8.10
2023-05-04T04:57:41.273Z,8.30
2023-05-04T05:00:10.641Z,8.60
2023-05-04T05:02:40.041Z,9.10
2023-05-04T05:05:09.569Z,9.90
2023-05-04T05:07:37.570Z,10.70
2023-05-04T05:10:06.488Z,11.40
2023-05-04T05:12:34.626Z,12.00
2023-05-04T05:15:04.315Z,12.10
2023-05-04T05:17:32.370Z,12.60
2023-05-04T05:20:01.710Z,13.20
2023-05-04T05:22:29.691Z,13.50
2023-05-04T05:24:57.807Z,13.50
2023-05-04T05:27:25.861Z,13.40
2023-05-04T05:29:54.066Z,13.00
2023-05-04T05:32:22.319Z,12.70
2023-05-04T05:34:50.384Z,12.80
2023-05-04T05:37:19.719Z,13.00
2023-05-04T05:39:47.770Z,12.80
2023-05-04T05:42:15.723Z,12.50
2023-05-04T05:44:43.776Z,12.40
2023-05-04T05:47:11.773Z,12.10
2023-05-04T05:49:39.750Z,12.00
2023-05-04T05:52:07.978Z,12.20
2023-05-04T05:54:37.996Z,12.20
2023-05-04T05:57:06.085Z,12.20
2023-05-04T05:59:34.084Z,12.40
2023-05-04T06:02:02.023Z,12.50
2023-05-04T06:04:30.161Z,12.70
2023-05-04T06:06:58.142Z,13.30
2023-05-04T06:09:26.134Z,13.80
2023-05-04T06:11:55.718Z,14.20
2023-05-04T06:14:23.809Z,14.50
2023-05-04T06:16:51.760Z,14.30
2023-05-04T06:19:19.755Z,13.70
2023-05-04T06:21:49.984Z,13.30
2023-05-04T06:24:17.985Z,13.10
2023-05-04T06:26:46.301Z,12.90
2023-05-04T06:29:15.638Z,13.00
2023-05-04T06:31:43.976Z,13.40
2023-05-04T06:34:13.044Z,13.40
2023-05-04T06:36:41.004Z,13.40
2023-05-04T06:39:08.942Z,13.60
2023-05-04T06:41:37.095Z,13.80
2023-05-04T06:44:05.991Z,13.50
2023-05-04T06:46:37.952Z,13.60
2023-05-04T06:49:05.939Z,13.50
2023-05-04T06:51:35.773Z,13.60
2023-05-04T06:54:03.802Z,13.60
2023-05-04T06:56:32.347Z,13.60
2023-05-04T06:59:00.437Z,13.70
2023-05-04T07:01:28.478Z,13.80
2023-05-04T07:03:58.844Z,13.90
2023-05-04T07:06:27.409Z,13.90
2023-05-04T07:08:55.399Z,14.10
2023-05-04T07:11:23.481Z,14.10
2023-05-04T07:13:51.645Z,14.10
2023-05-04T07:16:19.669Z,14.20
2023-05-04T07:18:47.678Z,14.20
2023-05-04T07:21:27.529Z,14.10
2023-05-04T07:23:56.137Z,14.20
2023-05-04T07:26:24.373Z,14.40
2023-05-04T07:28:54.330Z,14.50
2023-05-04T07:31:22.333Z,14.70
2023-05-04T07:33:50.766Z,14.80
2023-05-04T07:36:20.601Z,14.80
2023-05-04T07:38:48.858Z,15.00
2023-05-04T07:41:16.820Z,15.20
2023-05-04T07:43:44.856Z,15.40
2023-05-04T07:46:12.916Z,15.30
2023-05-04T07:48:40.964Z,15.20
2023-05-04T07:51:13.977Z,15.00
2023-05-04T07:53:43.647Z,15.20
2023-05-04T07:56:12.707Z,15.00
2023-05-04T07:58:41.267Z,15.10
2023-05-04T08:01:09.334Z,15.30
2023-05-04T08:03:37.335Z,15.60
2023-05-04T08:06:05.414Z,15.60
2023-05-04T08:08:33.386Z,15.50
2023-05-04T08:11:15.999Z,15.70
2023-05-04T08:13:47.895Z,15.80
2023-05-04T08:16:16.134Z,15.70
2023-05-04T08:18:44.470Z,15.90
2023-05-04T08:21:12.519Z,15.90
2023-05-04T08:23:40.499Z,16.10
2023-05-04T08:26:09.835Z,16.20
2023-05-04T08:28:40.113Z,16.30
2023-05-04T08:31:08.193Z,16.40
2023-05-04T08:33:36.221Z,16.50
2023-05-04T08:36:05.282Z,16.60
2023-05-04T08:38:33.254Z,16.70
2023-05-04T08:41:03.467Z,16.80
2023-05-04T08:43:35.377Z,16.90
2023-05-04T08:46:04.759Z,16.90
2023-05-04T08:48:33.793Z,17.10
2023-05-04T08:51:04.207Z,17.10
2023-05-04T08:53:33.646Z,17.20
2023-05-04T08:56:04.490Z,17.20
2023-05-04T08:58:37.739Z,17.50
2023-05-04T09:01:08.331Z,17.70
2023-05-04T09:03:36.690Z,17.80
2023-05-04T09:06:05.190Z,17.70
2023-05-04T09:08:33.253Z,17.90
2023-05-04T09:11:01.403Z,18.30
2023-05-04T09:13:29.372Z,18.60
2023-05-04T09:15:59.603Z,19.50
2023-05-04T09:18:38.138Z,20.10
2023-05-04T09:21:06.676Z,20.70
2023-05-04T09:23:35.164Z,20.60
2023-05-04T09:26:03.155Z,20.60
2023-05-04T09:28:39.139Z,20.90
2023-05-04T09:31:08.901Z,20.80
2023-05-04T09:33:37.102Z,21.00
2023-05-04T09:36:15.760Z,20.70
2023-05-04T09:38:44.176Z,20.80
2023-05-04T09:41:12.551Z,21.00
2023-05-04T09:43:41.771Z,21.00
2023-05-04T09:46:19.149Z,21.10
2023-05-04T09:48:55.003Z,21.50
2023-05-04T09:51:24.756Z,21.40
2023-05-04T09:53:53.855Z,20.90
2023-05-04T09:56:31.057Z,21.20
2023-05-04T09:58:59.898Z,21.10
2023-05-04T10:01:30.460Z,21.10
2023-05-04T10:03:58.778Z,21.40
2023-05-04T10:06:30.038Z,21.50
2023-05-04T10:09:00.453Z,21.30
2023-05-04T10:11:29.600Z,21.70
2023-05-04T10:13:57.820Z,21.40
2023-05-04T10:16:37.722Z,21.60
2023-05-04T10:19:29.274Z,21.40
2023-05-04T10:22:16.535Z,22.00
2023-05-04T10:25:07.349Z,21.80
2023-05-04T10:27:51.066Z,22.00
2023-05-04T10:30:20.312Z,22.10
2023-05-04T10:32:55.974Z,22.30
2023-05-04T10:35:24.891Z,22.30
2023-05-04T10:37:54.579Z,22.70
2023-05-04T10:40:35.212Z,22.60
2023-05-04T10:43:03.253Z,22.20
2023-05-04T10:45:38.728Z,22.20
2023-05-04T10:48:09.006Z,21.90
2023-05-04T10:50:44.476Z,21.80
2023-05-04T10:53:13.552Z,21.60
2023-05-04T10:55:42.626Z,22.00
2023-05-04T10:58:11.464Z,22.20
2023-05-04T11:00:40.628Z,22.60
2023-05-04T11:03:11.861Z,22.50
2023-05-04T11:05:44.622Z,22.60
2023-05-04T11:08:19.338Z,22.10
2023-05-04T11:10:48.331Z,22.10
2023-05-04T11:13:17.054Z,22.00
2023-05-04T11:15:46.350Z,22.80
2023-05-04T11:18:17.934Z,22.70
2023-05-04T11:20:47.023Z,22.90
2023-05-04T11:23:17.449Z,23.70
2023-05-04T11:25:45.717Z,23.70
2023-05-04T11:28:14.655Z,23.30
2023-05-04T11:30:44.501Z,23.70
2023-05-04T11:33:14.034Z,23.30
2023-05-04T11:35:44.858Z,23.10
2023-05-04T11:38:18.438Z,23.40
2023-05-04T11:40:49.088Z,23.00
2023-05-04T11:43:17.939Z,22.70
2023-05-04T11:45:49.468Z,22.70
2023-05-04T11:48:18.737Z,22.40
2023-05-04T11:50:49.015Z,22.70
2023-05-04T11:53:21.465Z,22.80
2023-05-04T11:55:49.660Z,23.20
2023-05-04T11:58:25.486Z,23.50
2023-05-04T12:00:57.348Z,23.80
2023-05-04T12:03:32.408Z,24.30
2023-05-04T12:06:09.272Z,24.50
2023-05-04T12:08:42.108Z,23.70
2023-05-04T12:11:14.562Z,23.70
2023-05-04T12:13:43.660Z,24.10
2023-05-04T12:16:12.651Z,23.70
2023-05-04T12:18:41.004Z,23.40
2023-05-04T12:21:12.035Z,23.80
2023-05-04T12:23:40.552Z,23.80
2023-05-04T12:26:08.958Z,23.90
2023-05-04T12:28:37.564Z,23.60
2023-05-04T12:31:06.875Z,23.50
2023-05-04T12:33:35.984Z,23.30
2023-05-04T12:36:06.173Z,23.50
2023-05-04T12:38:35.893Z,23.60
2023-05-04T12:41:04.501Z,23.50
2023-05-04T12:43:33.204Z,23.50
2023-05-04T12:46:01.525Z,23.50
2023-05-04T12:48:31.980Z,23.60
2023-05-04T12:51:00.572Z,23.60
2023-05-04T12:53:29.988Z,23.80
2023-05-04T12:56:00.016Z,24.00
2023-05-04T12:58:28.577Z,23.90
2023-05-04T13:00:57.773Z,23.60
2023-05-04T13:03:25.930Z,23.70
2023-05-04T13:05:54.040Z,23.60
2023-05-04T13:08:22.019Z,23.40
2023-05-04T13:10:50.032Z,23.30
2023-05-04T13:13:21.240Z,23.10
2023-05-04T13:15:51.671Z,22.70
2023-05-04T13:18:19.684Z,22.50
2023-05-04T13:20:47.699Z,22.70
2023-05-04T13:23:15.746Z,22.90
2023-05-04T13:25:43.773Z,22.70
2023-05-04T13:28:11.758Z,22.80
2023-05-04T13:30:41.080Z,22.90
2023-05-04T13:33:17.143Z,22.60
2023-05-04T13:35:56.865Z,22.40
2023-05-04T13:38:24.944Z,22.40
2023-05-04T13:40:52.868Z,22.60
2023-05-04T13:43:20.954Z,22.90
2023-05-04T13:45:50.271Z,23.10
2023-05-04T13:48:18.356Z,23.00
2023-05-04T13:50:46.390Z,22.70
2023-05-04T13:53:14.345Z,22.90
2023-05-04T13:55:42.316Z,22.90
2023-05-04T13:58:10.310Z,23.00
2023-05-04T14:00:38.365Z,23.00
2023-05-04T14:03:07.858Z,23.30
2023-05-04T14:05:36.499Z,23.20
2023-05-04T14:08:04.587Z,22.80
2023-05-04T14:10:33.114Z,22.70
2023-05-04T14:13:01.484Z,22.70
2023-05-04T14:15:29.642Z,22.90
2023-05-04T14:17:57.630Z,22.70
2023-05-04T14:20:27.057Z,22.70
2023-05-04T14:22:55.032Z,22.70
2023-05-04T14:25:23.055Z,22.80
2023-05-04T14:27:51.000Z,22.80
2023-05-04T14:30:18.996Z,22.90
2023-05-04T14:32:47.204Z,23.10
2023-05-04T14:35:16.289Z,22.90
2023-05-04T14:37:49.248Z,22.90
2023-05-04T14:40:17.641Z,22.80
2023-05-04T14:42:45.675Z,22.70
2023-05-04T14:45:14.602Z,22.90
2023-05-04T14:47:43.429Z,23.10
2023-05-04T14:50:13.160Z,23.20
2023-05-04T14:52:41.558Z,23.40
2023-05-04T14:55:12.017Z,23.40
2023-05-04T14:57:40.112Z,23.20
2023-05-04T15:00:09.998Z,23.10
2023-05-04T15:02:39.161Z,23.10
2023-05-04T15:05:09.760Z,23.10
2023-05-04T15:07:37.799Z,23.00
2023-05-04T15:10:07.861Z,22.90
2023-05-04T15:12:38.216Z,22.80
2023-05-04T15:15:07.040Z,22.90
2023-05-04T15:17:35.063Z,22.80
2023-05-04T15:20:03.348Z,23.00
2023-05-04T15:22:31.346Z,23.10
2023-05-04T15:24:59.391Z,23.10
2023-05-04T15:27:27.358Z,23.20
2023-05-04T15:29:56.702Z,23.30
2023-05-04T15:32:24.791Z,23.20
2023-05-04T15:35:04.691Z,23.00
2023-05-04T15:37:33.592Z,23.00
2023-05-04T15:40:02.648Z,23.00
2023-05-04T15:42:31.008Z,23.10
2023-05-04T15:45:00.431Z,23.10
2023-05-04T15:47:28.440Z,23.20
2023-05-04T15:49:56.462Z,23.20
2023-05-04T15:52:24.869Z,23.20
2023-05-04T15:54:52.889Z,23.20
2023-05-04T15:57:20.984Z,23.20
2023-05-04T15:59:49.689Z,23.30
2023-05-04T16:02:19.700Z,23.40
2023-05-04T16:04:47.726Z,23.40
2023-05-04T16:07:15.875Z,23.50
2023-05-04T16:09:43.848Z,23.50
2023-05-04T16:12:12.102Z,23.50
2023-05-04T16:14:40.347Z,23.40
2023-05-04T16:17:08.385Z,23.40
2023-05-04T16:19:38.087Z,23.40
2023-05-04T16:22:06.203Z,23.40
2023-05-04T16:24:34.328Z,23.50
2023-05-04T16:27:03.313Z,23.50
2023-05-04T16:29:31.277Z,23.40
2023-05-04T16:31:59.264Z,23.30
2023-05-04T16:34:27.222Z,23.10
2023-05-04T16:36:56.656Z,22.90
2023-05-04T16:39:29.971Z,22.80
2023-05-04T16:41:58.375Z,22.60
2023-05-04T16:44:26.631Z,22.60
2023-05-04T16:46:54.723Z,22.60
2023-05-04T16:49:22.746Z,22.70
2023-05-04T16:51:50.789Z,22.80
2023-05-04T16:54:21.047Z,22.90
2023-05-04T16:56:49.098Z,22.90
2023-05-04T16:59:17.452Z,22.80
2023-05-04T17:01:45.547Z,22.90
2023-05-04T17:04:13.571Z,22.80
2023-05-04T17:06:41.532Z,22.80
2023-05-04T17:09:09.843Z,22.70
2023-05-04T17:11:39.182Z,22.80
2023-05-04T17:14:07.213Z,22.80
2023-05-04T17:16:35.269Z,22.90
2023-05-04T17:19:03.575Z,23.00
2023-05-04T17:21:31.534Z,23.00
2023-05-04T17:23:59.491Z,23.10
2023-05-04T17:26:27.592Z,23.10
2023-05-04T17:28:56.909Z,23.00
2023-05-04T17:31:24.947Z,22.90
2023-05-04T17:33:52.946Z,22.70
2023-05-04T17:36:20.901Z,22.40
2023-05-04T17:38:48.892Z,22.40
2023-05-04T17:41:17.062Z,22.50
2023-05-04T17:43:45.656Z,22.40
2023-05-04T17:46:15.134Z,22.30
2023-05-04T17:48:44.522Z,22.30
2023-05-04T17:51:12.528Z,22.30
2023-05-04T17:53:40.501Z,22.30
2023-05-04T17:56:08.487Z,22.20
2023-05-04T17:58:36.705Z,22.20
2023-05-04T18:01:04.684Z,22.20
2023-05-04T18:03:34.109Z,22.00
2023-05-04T18:06:02.640Z,22.10
2023-05-04T18:08:30.580Z,21.90
2023-05-04T18:10:58.582Z,21.70
2023-05-04T18:13:26.686Z,21.70
2023-05-04T18:15:54.698Z,21.60
2023-05-04T18:18:22.692Z,21.60
2023-05-04T18:20:52.339Z,21.50
2023-05-04T18:23:20.381Z,21.50
2023-05-04T18:25:48.366Z,21.50
2023-05-04T18:28:17.252Z,21.50
2023-05-04T18:30:45.358Z,21.40
2023-05-04T18:33:13.354Z,21.40
2023-05-04T18:35:41.284Z,21.20
2023-05-04T18:38:12.284Z,21.10
2023-05-04T18:40:40.293Z,21.10
2023-05-04T18:43:08.316Z,21.00
2023-05-04T18:45:36.615Z,20.90
2023-05-04T18:48:04.740Z,20.80
2023-05-04T18:50:32.703Z,20.70
2023-05-04T18:53:01.347Z,20.50
2023-05-04T18:55:30.791Z,20.20
2023-05-04T18:57:59.099Z,20.00
2023-05-04T19:00:27.614Z,19.90
2023-05-04T19:02:56.542Z,19.90
2023-05-04T19:05:24.683Z,19.80
2023-05-04T19:07:55.194Z,19.80
2023-05-04T19:10:23.213Z,19.70
2023-05-04T19:12:53.262Z,19.50
2023-05-04T19:15:23.073Z,19.40
2023-05-04T19:17:51.437Z,19.40
2023-05-04T19:20:19.724Z,19.50
2023-05-04T19:22:47.799Z,19.40
2023-05-04T19:25:27.122Z,19.30
2023-05-04T19:28:08.388Z,19.20
2023-05-04T19:30:37.138Z,19.10
2023-05-04T19:33:06.109Z,18.90
2023-05-04T19:35:34.276Z,18.80
2023-05-04T19:38:02.461Z,18.80
2023-05-04T19:40:31.048Z,18.70
2023-05-04T19:42:59.078Z,18.60
2023-05-04T19:45:28.590Z,18.50
2023-05-04T19:47:56.769Z,18.50
2023-05-04T19:50:24.889Z,18.40
2023-05-04T19:52:52.893Z,18.30
2023-05-04T19:55:21.469Z,18.30
2023-05-04T19:57:50.016Z,18.30
2023-05-04T20:00:19.429Z,18.20
2023-05-04T20:02:48.988Z,18.20
2023-05-04T20:05:17.156Z,18.10
2023-05-04T20:07:45.641Z,18.10
2023-05-04T20:10:13.746Z,18.00
2023-05-04T20:12:41.984Z,17.90
2023-05-04T20:15:10.931Z,17.90
2023-05-04T20:17:39.003Z,17.80
2023-05-04T20:20:10.675Z,17.80
2023-05-04T20:22:39.266Z,17.70
2023-05-04T20:25:07.691Z,17.70
2023-05-04T20:27:35.712Z,17.70
2023-05-04T20:30:03.772Z,17.70
2023-05-04T20:32:32.039Z,17.80
2023-05-04T20:35:00.090Z,17.70
2023-05-04T20:37:29.415Z,17.70
2023-05-04T20:39:57.429Z,17.70
2023-05-04T20:42:25.780Z,17.60
2023-05-04T20:44:53.746Z,17.60
2023-05-04T20:47:21.734Z,17.50
2023-05-04T20:49:49.747Z,17.50
2023-05-04T20:52:17.690Z,17.40
2023-05-04T20:54:46.977Z,17.40
2023-05-04T20:57:15.024Z,17.30
2023-05-04T20:59:42.998Z,17.30
2023-05-04T21:02:11.404Z,17.20
2023-05-04T21:04:39.403Z,17.10
2023-05-04T21:07:07.378Z,17.10
2023-05-04T21:09:35.292Z,17.00
2023-05-04T21:12:04.848Z,17.00
2023-05-04T21:14:32.777Z,17.00
2023-05-04T21:17:00.854Z,17.00
2023-05-04T21:19:28.914Z,17.00
2023-05-04T21:21:56.857Z,17.00
2023-05-04T21:24:24.832Z,17.00
2023-05-04T21:26:53.329Z,17.00
2023-05-04T21:29:22.642Z,16.90
2023-05-04T21:31:50.618Z,16.80
2023-05-04T21:34:18.790Z,16.80
2023-05-04T21:36:46.754Z,16.90
2023-05-04T21:39:16.648Z,16.90
2023-05-04T21:41:44.609Z,16.80
2023-05-04T21:44:12.546Z,16.70
2023-05-04T21:46:41.886Z,16.60
2023-05-04T21:49:09.834Z,16.60
2023-05-04T21:51:37.813Z,16.60
2023-05-04T21:54:05.846Z,16.80
2023-05-04T21:56:33.795Z,16.90
2023-05-04T21:59:01.715Z,16.90
2023-05-04T22:01:29.709Z,16.80
2023-05-04T22:03:59.175Z,16.80
2023-05-04T22:06:27.171Z,16.80
2023-05-04T22:08:55.118Z,16.80
2023-05-04T22:11:26.114Z,16.80
2023-05-04T22:13:54.184Z,17.10
2023-05-04T22:16:22.137Z,17.30
2023-05-04T22:18:50.594Z,17.20
2023-05-04T22:21:19.897Z,17.00
2023-05-04T22:23:47.841Z,17.00
2023-05-04T22:26:15.983Z,17.10
2023-05-04T22:28:43.988Z,17.20
2023-05-04T22:31:12.056Z,17.20
2023-05-04T22:33:40.092Z,17.20
2023-05-04T22:36:09.027Z,17.10
2023-05-04T22:38:38.310Z,17.10
2023-05-04T22:41:06.797Z,17.40
2023-05-04T22:43:34.777Z,17.30
2023-05-04T22:46:02.768Z,17.20
2023-05-04T22:48:30.711Z,17.20
2023-05-04T22:50:58.670Z,17.30
2023-05-04T22:53:26.610Z,17.40
2023-05-04T22:55:55.902Z,17.40
2023-05-04T22:58:23.874Z,17.40
2023-05-04T23:00:51.850Z,17.30
2023-05-04T23:03:19.879Z,17.20
2023-05-04T23:05:47.964Z,17.10
2023-05-04T23:08:16.047Z,17.10
2023-05-04T23:10:45.997Z,17.20
2023-05-04T23:13:15.357Z,17.10
2023-05-04T23:15:43.402Z,17.20
2023-05-04T23:18:12.248Z,17.20
2023-05-04T23:20:40.254Z,17.20
2023-05-04T23:23:08.227Z,17.20
2023-05-04T23:25:36.379Z,17.20
2023-05-04T23:28:04.638Z,17.00
2023-05-04T23:30:33.943Z,17.00
2023-05-04T23:33:01.939Z,16.90
2023-05-04T23:35:30.060Z,16.90
2023-05-04T23:37:58.059Z,16.80
2023-05-04T23:40:25.991Z,16.80
2023-05-04T23:42:53.986Z,16.80
2023-05-04T23:45:21.964Z,16.80
2023-05-04T23:47:51.472Z,16.60
2023-05-04T23:50:19.613Z,16.60
2023-05-04T23:52:47.554Z,16.50
2023-05-04T23:55:15.660Z,16.40
2023-05-04T23:57:44.530Z,16.40
